createdAt,value
2023-03-23T16:05:23.105Z,99350.41
2023-03-23T16:15:25.519Z,99347.03
2023-03-23T16:25:27.627Z,99337.59
2023-03-23T16:35:29.865Z,99365.34
2023-03-23T16:45:32.467Z,99350.25
2023-03-23T16:55:35.993Z,99360.91
2023-03-23T17:05:38.340Z,99366.75
2023-03-23T17:15:46.081Z,99387.69
2023-03-23T17:25:50.538Z,99391.75
2023-03-23T17:35:53.880Z,99412.16
2023-03-23T17:45:56.501Z,99405.91
2023-03-23T17:55:59.237Z,99403.56
2023-03-23T18:06:04.107Z,99397.94
2023-03-23T18:16:07.800Z,99384.53
2023-03-23T18:26:13.367Z,99361.69
2023-03-23T18:36:23.099Z,99352.25
2023-03-23T18:46:27.492Z,99340.50
2023-03-23T18:56:29.879Z,99341.41
2023-03-23T19:06:33.288Z,99347.03
2023-03-23T19:16:36.393Z,99333.50
2023-03-23T19:26:41.882Z,99324.38
2023-03-23T19:36:54.484Z,99309.97
2023-03-23T19:47:02.947Z,99316.00
2023-03-23T19:57:05.860Z,99291.75
2023-03-23T20:07:08.390Z,99275.78
2023-03-23T20:17:11.810Z,99268.31
2023-03-23T20:27:15.539Z,99267.13
2023-03-23T20:37:21.012Z,99262.03
2023-03-23T20:47:23.637Z,99246.97
2023-03-23T20:57:25.939Z,99233.53
2023-03-23T21:07:30.852Z,99217.66
2023-03-23T21:17:32.998Z,99210.00
2023-03-23T21:27:37.137Z,99201.56
2023-03-23T21:37:39.497Z,99196.91
2023-03-23T21:47:42.043Z,99176.22
2023-03-23T21:57:47.356Z,99171.34
2023-03-23T22:07:49.599Z,99172.25
2023-03-23T22:17:51.869Z,99171.25
2023-03-23T22:27:55.256Z,99168.06
2023-03-23T22:37:57.529Z,99142.91
2023-03-23T22:48:00.077Z,99143.97
2023-03-23T22:58:02.550Z,99131.84
2023-03-23T23:08:04.849Z,99128.91
2023-03-23T23:18:07.165Z,99123.59
2023-03-23T23:28:09.402Z,99105.28
2023-03-23T23:38:12.625Z,99074.72
2023-03-23T23:48:15.161Z,99067.31
2023-03-23T23:58:19.582Z,99061.22
